sensor_id;sensor_type;location;lat;lon;timestamp;temperature;humidity
431;DHT22;202;48.764;9.172;2022-07-09T00:00:33;18.10;41.90
431;DHT22;202;48.764;9.172;2022-07-09T00:03:00;18.00;41.80
431;DHT22;202;48.764;9.172;2022-07-09T00:05:39;18.00;42.10
431;DHT22;202;48.764;9.172;2022-07-09T00:08:06;18.10;41.00
431;DHT22;202;48.764;9.172;2022-07-09T00:10:43;18.10;41.00
431;DHT22;202;48.764;9.172;2022-07-09T00:13:13;18.10;41.00
431;DHT22;202;48.764;9.172;2022-07-09T00:15:41;18.10;41.00
431;DHT22;202;48.764;9.172;2022-07-09T00:18:15;18.00;40.90
431;DHT22;202;48.764;9.172;2022-07-09T00:20:42;18.00;41.50
431;DHT22;202;48.764;9.172;2022-07-09T00:23:09;17.90;41.60
431;DHT22;202;48.764;9.172;2022-07-09T00:25:37;17.90;42.50
431;DHT22;202;48.764;9.172;2022-07-09T00:28:05;17.80;42.80
431;DHT22;202;48.764;9.172;2022-07-09T00:30:32;17.80;42.90
431;DHT22;202;48.764;9.172;2022-07-09T00:32:59;17.70;42.80
431;DHT22;202;48.764;9.172;2022-07-09T00:35:26;17.70;43.10
431;DHT22;202;48.764;9.172;2022-07-09T00:37:53;17.60;43.30
431;DHT22;202;48.764;9.172;2022-07-09T00:40:21;17.60;43.50
431;DHT22;202;48.764;9.172;2022-07-09T00:42:48;17.60;43.60
431;DHT22;202;48.764;9.172;2022-07-09T00:45:16;17.60;43.40
431;DHT22;202;48.764;9.172;2022-07-09T00:47:44;17.50;43.80
431;DHT22;202;48.764;9.172;2022-07-09T00:50:11;17.50;43.70
431;DHT22;202;48.764;9.172;2022-07-09T00:52:39;17.50;44.00
431;DHT22;202;48.764;9.172;2022-07-09T00:55:08;17.50;43.70
431;DHT22;202;48.764;9.172;2022-07-09T00:57:37;17.40;44.00
431;DHT22;202;48.764;9.172;2022-07-09T01:00:06;17.40;43.90
431;DHT22;202;48.764;9.172;2022-07-09T01:02:35;17.40;44.10
431;DHT22;202;48.764;9.172;2022-07-09T01:05:03;17.40;44.30
431;DHT22;202;48.764;9.172;2022-07-09T01:07:30;17.30;43.80
431;DHT22;202;48.764;9.172;2022-07-09T01:09:57;17.40;43.80
431;DHT22;202;48.764;9.172;2022-07-09T01:12:24;17.40;44.30
431;DHT22;202;48.764;9.172;2022-07-09T01:14:51;17.40;44.60
431;DHT22;202;48.764;9.172;2022-07-09T01:17:18;17.40;44.70
431;DHT22;202;48.764;9.172;2022-07-09T01:19:47;17.30;44.60
431;DHT22;202;48.764;9.172;2022-07-09T01:22:15;17.30;44.30
431;DHT22;202;48.764;9.172;2022-07-09T01:24:42;17.20;44.40
431;DHT22;202;48.764;9.172;2022-07-09T01:27:09;17.30;44.80
431;DHT22;202;48.764;9.172;2022-07-09T01:29:36;17.30;45.00
431;DHT22;202;48.764;9.172;2022-07-09T01:32:04;17.20;44.80
431;DHT22;202;48.764;9.172;2022-07-09T01:34:31;17.20;45.20
431;DHT22;202;48.764;9.172;2022-07-09T01:36:58;17.20;45.20
431;DHT22;202;48.764;9.172;2022-07-09T01:39:26;17.30;44.90
431;DHT22;202;48.764;9.172;2022-07-09T01:41:53;17.20;45.10
431;DHT22;202;48.764;9.172;2022-07-09T01:44:20;17.20;45.50
431;DHT22;202;48.764;9.172;2022-07-09T01:46:47;17.20;45.90
431;DHT22;202;48.764;9.172;2022-07-09T01:49:14;17.10;45.90
431;DHT22;202;48.764;9.172;2022-07-09T01:51:41;17.10;46.00
431;DHT22;202;48.764;9.172;2022-07-09T01:54:08;17.10;46.60
431;DHT22;202;48.764;9.172;2022-07-09T01:56:36;17.10;46.50
431;DHT22;202;48.764;9.172;2022-07-09T01:59:03;17.00;46.50
431;DHT22;202;48.764;9.172;2022-07-09T02:01:30;17.00;46.50
431;DHT22;202;48.764;9.172;2022-07-09T02:03:57;17.00;46.40
431;DHT22;202;48.764;9.172;2022-07-09T02:06:24;16.90;46.90
431;DHT22;202;48.764;9.172;2022-07-09T02:08:51;16.80;46.70
431;DHT22;202;48.764;9.172;2022-07-09T02:11:18;16.80;46.60
431;DHT22;202;48.764;9.172;2022-07-09T02:13:46;16.80;46.90
431;DHT22;202;48.764;9.172;2022-07-09T02:16:13;16.70;46.60
431;DHT22;202;48.764;9.172;2022-07-09T02:18:40;16.70;46.90
431;DHT22;202;48.764;9.172;2022-07-09T02:21:07;16.80;47.20
431;DHT22;202;48.764;9.172;2022-07-09T02:23:34;16.80;46.70
431;DHT22;202;48.764;9.172;2022-07-09T02:26:01;16.90;46.60
431;DHT22;202;48.764;9.172;2022-07-09T02:28:28;16.90;46.40
431;DHT22;202;48.764;9.172;2022-07-09T02:30:57;16.90;46.00
431;DHT22;202;48.764;9.172;2022-07-09T02:33:24;16.90;45.70
431;DHT22;202;48.764;9.172;2022-07-09T02:35:51;16.80;46.00
431;DHT22;202;48.764;9.172;2022-07-09T02:38:18;16.90;45.60
431;DHT22;202;48.764;9.172;2022-07-09T02:40:46;16.90;45.60
431;DHT22;202;48.764;9.172;2022-07-09T02:43:14;16.80;46.00
431;DHT22;202;48.764;9.172;2022-07-09T02:45:41;16.70;46.00
431;DHT22;202;48.764;9.172;2022-07-09T02:48:09;16.60;46.60
431;DHT22;202;48.764;9.172;2022-07-09T02:50:36;16.50;47.10
431;DHT22;202;48.764;9.172;2022-07-09T02:53:03;16.50;48.10
431;DHT22;202;48.764;9.172;2022-07-09T02:55:30;16.50;48.30
431;DHT22;202;48.764;9.172;2022-07-09T02:57:57;16.40;47.40
431;DHT22;202;48.764;9.172;2022-07-09T03:00:24;16.40;47.90
431;DHT22;202;48.764;9.172;2022-07-09T03:02:51;16.40;48.30
431;DHT22;202;48.764;9.172;2022-07-09T03:05:20;16.40;49.00
431;DHT22;202;48.764;9.172;2022-07-09T03:07:46;16.40;48.70
431;DHT22;202;48.764;9.172;2022-07-09T03:10:13;16.40;48.60
431;DHT22;202;48.764;9.172;2022-07-09T03:12:41;16.40;48.90
431;DHT22;202;48.764;9.172;2022-07-09T03:15:08;16.30;48.80
431;DHT22;202;48.764;9.172;2022-07-09T03:17:38;16.30;49.30
431;DHT22;202;48.764;9.172;2022-07-09T03:20:06;16.30;49.30
431;DHT22;202;48.764;9.172;2022-07-09T03:22:35;16.40;49.40
431;DHT22;202;48.764;9.172;2022-07-09T03:25:02;16.50;48.70
431;DHT22;202;48.764;9.172;2022-07-09T03:27:29;16.50;48.60
431;DHT22;202;48.764;9.172;2022-07-09T03:29:56;16.50;48.00
431;DHT22;202;48.764;9.172;2022-07-09T03:32:23;16.50;48.30
431;DHT22;202;48.764;9.172;2022-07-09T03:34:50;16.50;48.70
431;DHT22;202;48.764;9.172;2022-07-09T03:37:18;16.50;49.50
431;DHT22;202;48.764;9.172;2022-07-09T03:39:47;16.40;49.40
431;DHT22;202;48.764;9.172;2022-07-09T03:42:14;16.40;49.40
431;DHT22;202;48.764;9.172;2022-07-09T03:44:41;16.40;49.40
431;DHT22;202;48.764;9.172;2022-07-09T03:47:08;16.40;49.40
431;DHT22;202;48.764;9.172;2022-07-09T03:49:35;16.40;49.40
431;DHT22;202;48.764;9.172;2022-07-09T03:52:04;16.40;49.40
431;DHT22;202;48.764;9.172;2022-07-09T03:54:31;16.30;49.30
431;DHT22;202;48.764;9.172;2022-07-09T03:56:59;16.30;49.30
431;DHT22;202;48.764;9.172;2022-07-09T03:59:26;16.30;49.60
431;DHT22;202;48.764;9.172;2022-07-09T04:01:54;16.40;49.40
431;DHT22;202;48.764;9.172;2022-07-09T04:04:21;16.40;49.40
431;DHT22;202;48.764;9.172;2022-07-09T04:06:48;16.50;49.50
431;DHT22;202;48.764;9.172;2022-07-09T04:09:15;16.50;49.50
431;DHT22;202;48.764;9.172;2022-07-09T04:11:42;16.50;49.50
431;DHT22;202;48.764;9.172;2022-07-09T04:14:10;16.50;49.20
431;DHT22;202;48.764;9.172;2022-07-09T04:16:37;16.50;49.00
431;DHT22;202;48.764;9.172;2022-07-09T04:19:04;16.60;49.10
431;DHT22;202;48.764;9.172;2022-07-09T04:21:32;16.50;49.40
431;DHT22;202;48.764;9.172;2022-07-09T04:23:59;16.50;49.50
431;DHT22;202;48.764;9.172;2022-07-09T04:26:26;16.40;49.40
431;DHT22;202;48.764;9.172;2022-07-09T04:28:53;16.50;49.50
431;DHT22;202;48.764;9.172;2022-07-09T04:31:21;16.60;49.60
431;DHT22;202;48.764;9.172;2022-07-09T04:33:48;16.60;49.60
431;DHT22;202;48.764;9.172;2022-07-09T04:36:15;16.70;48.80
431;DHT22;202;48.764;9.172;2022-07-09T04:38:42;16.70;49.20
431;DHT22;202;48.764;9.172;2022-07-09T04:41:09;16.70;49.60
431;DHT22;202;48.764;9.172;2022-07-09T04:43:36;16.70;50.40
431;DHT22;202;48.764;9.172;2022-07-09T04:46:03;16.80;48.70
431;DHT22;202;48.764;9.172;2022-07-09T04:48:31;16.80;48.80
431;DHT22;202;48.764;9.172;2022-07-09T04:50:58;16.80;49.70
431;DHT22;202;48.764;9.172;2022-07-09T04:53:25;17.00;48.30
431;DHT22;202;48.764;9.172;2022-07-09T04:55:52;17.00;48.10
431;DHT22;202;48.764;9.172;2022-07-09T04:58:19;16.90;48.40
431;DHT22;202;48.764;9.172;2022-07-09T05:00:46;16.90;47.90
431;DHT22;202;48.764;9.172;2022-07-09T05:03:13;16.90;48.30
431;DHT22;202;48.764;9.172;2022-07-09T05:05:45;16.90;49.60
431;DHT22;202;48.764;9.172;2022-07-09T05:08:12;17.00;48.60
431;DHT22;202;48.764;9.172;2022-07-09T05:10:39;17.10;49.00
431;DHT22;202;48.764;9.172;2022-07-09T05:13:09;17.20;47.50
431;DHT22;202;48.764;9.172;2022-07-09T05:15:36;17.00;48.70
431;DHT22;202;48.764;9.172;2022-07-09T05:18:03;17.00;48.80
431;DHT22;202;48.764;9.172;2022-07-09T05:20:30;17.10;49.40
431;DHT22;202;48.764;9.172;2022-07-09T05:23:01;17.30;47.50
431;DHT22;202;48.764;9.172;2022-07-09T05:25:28;17.20;47.80
431;DHT22;202;48.764;9.172;2022-07-09T05:27:55;17.30;49.00
431;DHT22;202;48.764;9.172;2022-07-09T05:30:22;17.40;47.90
431;DHT22;202;48.764;9.172;2022-07-09T06:15:17;19.20;43.20
431;DHT22;202;48.764;9.172;2022-07-09T06:18:07;19.20;43.10
431;DHT22;202;48.764;9.172;2022-07-09T06:20:54;19.30;42.70
431;DHT22;202;48.764;9.172;2022-07-09T06:26:30;19.20;42.40
431;DHT22;202;48.764;9.172;2022-07-09T06:29:08;19.30;43.90
431;DHT22;202;48.764;9.172;2022-07-09T06:37:28;19.80;42.50
431;DHT22;202;48.764;9.172;2022-07-09T06:40:02;20.10;41.50
431;DHT22;202;48.764;9.172;2022-07-09T06:43:14;20.40;40.50
431;DHT22;202;48.764;9.172;2022-07-09T06:46:02;20.90;40.50
431;DHT22;202;48.764;9.172;2022-07-09T06:48:46;21.20;39.00
431;DHT22;202;48.764;9.172;2022-07-09T06:51:30;21.40;38.20
431;DHT22;202;48.764;9.172;2022-07-09T06:54:23;21.20;38.50
431;DHT22;202;48.764;9.172;2022-07-09T06:57:06;21.30;39.20
431;DHT22;202;48.764;9.172;2022-07-09T06:59:45;21.50;39.40
431;DHT22;202;48.764;9.172;2022-07-09T07:02:16;22.10;38.10
431;DHT22;202;48.764;9.172;2022-07-09T07:04:43;22.70;37.10
431;DHT22;202;48.764;9.172;2022-07-09T07:07:10;23.30;36.20
431;DHT22;202;48.764;9.172;2022-07-09T07:09:38;24.00;34.60
431;DHT22;202;48.764;9.172;2022-07-09T07:12:09;24.80;33.20
431;DHT22;202;48.764;9.172;2022-07-09T07:14:47;25.20;31.00
431;DHT22;202;48.764;9.172;2022-07-09T07:17:31;25.70;30.40
431;DHT22;202;48.764;9.172;2022-07-09T07:20:19;26.20;29.60
431;DHT22;202;48.764;9.172;2022-07-09T07:22:50;26.90;27.90
431;DHT22;202;48.764;9.172;2022-07-09T07:25:21;27.20;28.00
431;DHT22;202;48.764;9.172;2022-07-09T07:27:48;27.60;27.30
431;DHT22;202;48.764;9.172;2022-07-09T07:30:18;27.10;28.30
431;DHT22;202;48.764;9.172;2022-07-09T07:32:55;27.20;28.40
431;DHT22;202;48.764;9.172;2022-07-09T07:56:25;29.20;24.20
431;DHT22;202;48.764;9.172;2022-07-09T08:01:52;29.10;24.40
431;DHT22;202;48.764;9.172;2022-07-09T08:04:22;28.80;24.30
431;DHT22;202;48.764;9.172;2022-07-09T08:06:53;29.30;24.40
431;DHT22;202;48.764;9.172;2022-07-09T08:09:26;30.00;23.30
431;DHT22;202;48.764;9.172;2022-07-09T08:12:03;30.00;22.10
431;DHT22;202;48.764;9.172;2022-07-09T08:14:31;30.30;22.60
431;DHT22;202;48.764;9.172;2022-07-09T08:16:58;30.60;21.80
431;DHT22;202;48.764;9.172;2022-07-09T08:19:35;29.60;22.70
431;DHT22;202;48.764;9.172;2022-07-09T08:22:02;29.60;22.70
431;DHT22;202;48.764;9.172;2022-07-09T08:24:33;28.50;24.50
431;DHT22;202;48.764;9.172;2022-07-09T08:27:23;28.80;24.80
431;DHT22;202;48.764;9.172;2022-07-09T08:29:54;29.30;23.80
431;DHT22;202;48.764;9.172;2022-07-09T08:32:29;29.60;23.30
431;DHT22;202;48.764;9.172;2022-07-09T08:35:13;29.60;24.50
431;DHT22;202;48.764;9.172;2022-07-09T08:37:57;29.90;23.50
431;DHT22;202;48.764;9.172;2022-07-09T08:40:25;30.00;23.30
431;DHT22;202;48.764;9.172;2022-07-09T08:42:54;30.20;23.80
431;DHT22;202;48.764;9.172;2022-07-09T08:45:38;30.60;22.30
431;DHT22;202;48.764;9.172;2022-07-09T08:48:12;31.00;23.20
431;DHT22;202;48.764;9.172;2022-07-09T08:50:46;31.00;22.00
431;DHT22;202;48.764;9.172;2022-07-09T08:53:30;30.80;22.40
431;DHT22;202;48.764;9.172;2022-07-09T08:56:21;30.30;22.70
431;DHT22;202;48.764;9.172;2022-07-09T08:58:53;29.60;24.20
431;DHT22;202;48.764;9.172;2022-07-09T09:01:22;30.00;23.20
431;DHT22;202;48.764;9.172;2022-07-09T09:03:54;30.00;22.80
431;DHT22;202;48.764;9.172;2022-07-09T09:06:35;30.20;23.40
431;DHT22;202;48.764;9.172;2022-07-09T09:09:09;30.60;21.80
431;DHT22;202;48.764;9.172;2022-07-09T09:11:50;30.20;23.40
431;DHT22;202;48.764;9.172;2022-07-09T09:15:11;30.20;23.50
431;DHT22;202;48.764;9.172;2022-07-09T09:17:46;30.30;23.00
431;DHT22;202;48.764;9.172;2022-07-09T09:20:22;30.10;23.20
431;DHT22;202;48.764;9.172;2022-07-09T09:22:52;30.10;22.10
431;DHT22;202;48.764;9.172;2022-07-09T09:25:25;29.70;22.80
431;DHT22;202;48.764;9.172;2022-07-09T09:27:55;29.70;23.30
431;DHT22;202;48.764;9.172;2022-07-09T09:37:44;28.70;23.90
431;DHT22;202;48.764;9.172;2022-07-09T09:40:51;28.80;24.10
431;DHT22;202;48.764;9.172;2022-07-09T09:43:43;29.00;24.00
431;DHT22;202;48.764;9.172;2022-07-09T09:46:28;28.80;23.90
431;DHT22;202;48.764;9.172;2022-07-09T09:49:07;28.40;24.60
431;DHT22;202;48.764;9.172;2022-07-09T09:52:11;28.10;24.90
431;DHT22;202;48.764;9.172;2022-07-09T09:55:01;27.50;25.60
431;DHT22;202;48.764;9.172;2022-07-09T10:00:39;27.00;26.40
431;DHT22;202;48.764;9.172;2022-07-09T10:03:11;26.80;26.40
431;DHT22;202;48.764;9.172;2022-07-09T10:05:48;26.60;26.70
431;DHT22;202;48.764;9.172;2022-07-09T10:08:16;26.60;28.00
431;DHT22;202;48.764;9.172;2022-07-09T10:10:50;27.10;26.70
431;DHT22;202;48.764;9.172;2022-07-09T10:13:19;27.20;26.30
431;DHT22;202;48.764;9.172;2022-07-09T10:15:48;27.20;26.10
431;DHT22;202;48.764;9.172;2022-07-09T10:18:18;27.30;25.30
431;DHT22;202;48.764;9.172;2022-07-09T10:20:45;27.50;25.30
431;DHT22;202;48.764;9.172;2022-07-09T10:23:20;27.50;24.50
431;DHT22;202;48.764;9.172;2022-07-09T10:25:50;27.50;24.60
431;DHT22;202;48.764;9.172;2022-07-09T10:28:19;27.40;24.90
431;DHT22;202;48.764;9.172;2022-07-09T10:30:47;27.50;25.50
431;DHT22;202;48.764;9.172;2022-07-09T10:33:22;27.60;25.90
431;DHT22;202;48.764;9.172;2022-07-09T10:36:08;27.50;24.90
431;DHT22;202;48.764;9.172;2022-07-09T10:38:53;27.50;24.30
431;DHT22;202;48.764;9.172;2022-07-09T10:41:21;27.60;24.50
431;DHT22;202;48.764;9.172;2022-07-09T10:43:50;27.60;25.20
431;DHT22;202;48.764;9.172;2022-07-09T10:46:17;27.70;23.80
431;DHT22;202;48.764;9.172;2022-07-09T10:48:47;27.70;23.60
431;DHT22;202;48.764;9.172;2022-07-09T10:51:18;28.00;23.50
431;DHT22;202;48.764;9.172;2022-07-09T10:53:45;27.80;23.90
431;DHT22;202;48.764;9.172;2022-07-09T10:56:16;28.00;23.90
431;DHT22;202;48.764;9.172;2022-07-09T10:58:45;28.10;23.60
431;DHT22;202;48.764;9.172;2022-07-09T11:01:18;28.10;24.30
431;DHT22;202;48.764;9.172;2022-07-09T11:03:50;28.20;23.30
431;DHT22;202;48.764;9.172;2022-07-09T11:06:17;28.10;24.00
431;DHT22;202;48.764;9.172;2022-07-09T11:08:44;28.10;24.40
431;DHT22;202;48.764;9.172;2022-07-09T11:11:11;28.10;23.60
431;DHT22;202;48.764;9.172;2022-07-09T11:13:38;27.80;23.70
431;DHT22;202;48.764;9.172;2022-07-09T11:16:06;27.60;24.70
431;DHT22;202;48.764;9.172;2022-07-09T11:18:33;27.40;25.10
431;DHT22;202;48.764;9.172;2022-07-09T11:21:02;27.30;25.00
431;DHT22;202;48.764;9.172;2022-07-09T11:23:29;27.00;25.40
431;DHT22;202;48.764;9.172;2022-07-09T11:25:56;26.80;25.40
431;DHT22;202;48.764;9.172;2022-07-09T11:28:26;26.70;26.10
431;DHT22;202;48.764;9.172;2022-07-09T11:30:59;26.70;26.30
431;DHT22;202;48.764;9.172;2022-07-09T11:33:28;26.60;26.70
431;DHT22;202;48.764;9.172;2022-07-09T11:36:17;26.30;26.40
431;DHT22;202;48.764;9.172;2022-07-09T11:38:48;26.40;28.00
431;DHT22;202;48.764;9.172;2022-07-09T11:41:15;26.30;27.40
431;DHT22;202;48.764;9.172;2022-07-09T11:43:46;26.40;27.90
431;DHT22;202;48.764;9.172;2022-07-09T11:46:16;26.30;27.70
431;DHT22;202;48.764;9.172;2022-07-09T11:48:48;26.40;27.00
431;DHT22;202;48.764;9.172;2022-07-09T11:51:27;26.40;26.70
431;DHT22;202;48.764;9.172;2022-07-09T11:53:54;26.30;27.00
431;DHT22;202;48.764;9.172;2022-07-09T11:56:21;26.40;27.50
431;DHT22;202;48.764;9.172;2022-07-09T11:58:49;26.40;27.50
431;DHT22;202;48.764;9.172;2022-07-09T12:01:17;26.50;26.60
431;DHT22;202;48.764;9.172;2022-07-09T12:03:47;26.60;26.40
431;DHT22;202;48.764;9.172;2022-07-09T12:06:14;26.60;26.30
431;DHT22;202;48.764;9.172;2022-07-09T12:08:42;26.80;26.30
431;DHT22;202;48.764;9.172;2022-07-09T12:11:10;26.80;25.80
431;DHT22;202;48.764;9.172;2022-07-09T12:13:37;26.80;26.10
431;DHT22;202;48.764;9.172;2022-07-09T12:16:04;26.80;26.20
431;DHT22;202;48.764;9.172;2022-07-09T12:18:31;26.70;26.20
431;DHT22;202;48.764;9.172;2022-07-09T12:20:58;26.60;26.50
431;DHT22;202;48.764;9.172;2022-07-09T12:23:25;26.30;27.90
431;DHT22;202;48.764;9.172;2022-07-09T12:25:53;26.30;27.90
431;DHT22;202;48.764;9.172;2022-07-09T12:28:20;26.20;27.90
431;DHT22;202;48.764;9.172;2022-07-09T12:30:48;26.20;28.30
431;DHT22;202;48.764;9.172;2022-07-09T12:33:17;26.30;28.70
431;DHT22;202;48.764;9.172;2022-07-09T12:35:49;26.20;27.90
431;DHT22;202;48.764;9.172;2022-07-09T12:38:16;26.30;27.90
431;DHT22;202;48.764;9.172;2022-07-09T12:40:43;26.30;27.90
431;DHT22;202;48.764;9.172;2022-07-09T12:43:11;26.40;27.20
431;DHT22;202;48.764;9.172;2022-07-09T12:45:38;26.40;27.30
431;DHT22;202;48.764;9.172;2022-07-09T12:48:07;26.50;27.40
431;DHT22;202;48.764;9.172;2022-07-09T12:50:34;26.60;28.10
431;DHT22;202;48.764;9.172;2022-07-09T12:53:01;26.60;28.00
431;DHT22;202;48.764;9.172;2022-07-09T12:55:28;26.70;26.90
431;DHT22;202;48.764;9.172;2022-07-09T12:57:55;26.80;26.90
431;DHT22;202;48.764;9.172;2022-07-09T13:00:39;26.80;26.40
431;DHT22;202;48.764;9.172;2022-07-09T13:03:47;26.70;25.80
431;DHT22;202;48.764;9.172;2022-07-09T13:06:46;26.60;26.60
431;DHT22;202;48.764;9.172;2022-07-09T13:09:27;26.70;25.70
431;DHT22;202;48.764;9.172;2022-07-09T13:18:29;26.70;26.20
431;DHT22;202;48.764;9.172;2022-07-09T13:21:39;26.70;26.20
431;DHT22;202;48.764;9.172;2022-07-09T13:27:49;27.00;26.30
431;DHT22;202;48.764;9.172;2022-07-09T13:30:18;27.00;25.80
431;DHT22;202;48.764;9.172;2022-07-09T13:32:52;27.00;25.60
431;DHT22;202;48.764;9.172;2022-07-09T13:35:59;27.00;26.10
431;DHT22;202;48.764;9.172;2022-07-09T13:38:43;27.10;26.60
431;DHT22;202;48.764;9.172;2022-07-09T13:41:36;27.20;26.70
431;DHT22;202;48.764;9.172;2022-07-09T13:44:19;27.30;27.60
431;DHT22;202;48.764;9.172;2022-07-09T13:46:48;27.40;27.00
431;DHT22;202;48.764;9.172;2022-07-09T13:49:20;27.30;25.30
431;DHT22;202;48.764;9.172;2022-07-09T13:51:54;27.30;25.70
431;DHT22;202;48.764;9.172;2022-07-09T13:54:34;27.30;25.40
431;DHT22;202;48.764;9.172;2022-07-09T13:57:07;27.20;25.50
431;DHT22;202;48.764;9.172;2022-07-09T13:59:54;27.10;26.70
431;DHT22;202;48.764;9.172;2022-07-09T14:09:35;27.00;25.90
431;DHT22;202;48.764;9.172;2022-07-09T14:12:39;26.90;26.20
431;DHT22;202;48.764;9.172;2022-07-09T14:15:52;26.90;27.20
431;DHT22;202;48.764;9.172;2022-07-09T14:18:58;27.00;27.10
431;DHT22;202;48.764;9.172;2022-07-09T14:24:55;27.20;26.90
431;DHT22;202;48.764;9.172;2022-07-09T14:27:53;27.30;27.50
431;DHT22;202;48.764;9.172;2022-07-09T14:30:26;27.30;26.50
431;DHT22;202;48.764;9.172;2022-07-09T14:33:02;27.30;25.90
431;DHT22;202;48.764;9.172;2022-07-09T14:36:03;27.30;25.80
431;DHT22;202;48.764;9.172;2022-07-09T14:38:59;27.30;25.90
431;DHT22;202;48.764;9.172;2022-07-09T14:41:41;27.20;25.80
431;DHT22;202;48.764;9.172;2022-07-09T14:44:15;27.20;25.60
431;DHT22;202;48.764;9.172;2022-07-09T14:46:47;27.20;28.40
431;DHT22;202;48.764;9.172;2022-07-09T14:49:17;27.20;25.50
431;DHT22;202;48.764;9.172;2022-07-09T14:52:15;27.20;25.60
431;DHT22;202;48.764;9.172;2022-07-09T14:54:59;27.10;26.00
431;DHT22;202;48.764;9.172;2022-07-09T14:58:04;27.00;26.40
431;DHT22;202;48.764;9.172;2022-07-09T15:01:01;26.90;27.70
431;DHT22;202;48.764;9.172;2022-07-09T15:03:35;26.80;28.20
431;DHT22;202;48.764;9.172;2022-07-09T15:06:34;26.80;27.10
431;DHT22;202;48.764;9.172;2022-07-09T15:09:42;26.70;26.90
431;DHT22;202;48.764;9.172;2022-07-09T15:12:23;26.60;26.10
431;DHT22;202;48.764;9.172;2022-07-09T15:15:04;26.50;26.60
431;DHT22;202;48.764;9.172;2022-07-09T15:17:58;26.50;28.00
431;DHT22;202;48.764;9.172;2022-07-09T15:20:30;26.40;27.90
431;DHT22;202;48.764;9.172;2022-07-09T15:23:19;26.50;28.70
431;DHT22;202;48.764;9.172;2022-07-09T15:25:56;26.50;28.00
431;DHT22;202;48.764;9.172;2022-07-09T15:28:52;26.60;28.00
431;DHT22;202;48.764;9.172;2022-07-09T15:31:35;26.50;28.00
431;DHT22;202;48.764;9.172;2022-07-09T15:34:09;26.40;28.00
431;DHT22;202;48.764;9.172;2022-07-09T15:36:44;26.40;28.80
431;DHT22;202;48.764;9.172;2022-07-09T15:39:55;26.40;28.60
431;DHT22;202;48.764;9.172;2022-07-09T15:42:37;26.30;28.70
431;DHT22;202;48.764;9.172;2022-07-09T15:45:59;26.30;29.60
431;DHT22;202;48.764;9.172;2022-07-09T15:48:40;26.30;30.00
431;DHT22;202;48.764;9.172;2022-07-09T16:05:23;26.40;29.00
431;DHT22;202;48.764;9.172;2022-07-09T16:08:13;26.50;28.40
431;DHT22;202;48.764;9.172;2022-07-09T16:11:38;26.40;28.40
431;DHT22;202;48.764;9.172;2022-07-09T16:18:12;26.50;28.70
431;DHT22;202;48.764;9.172;2022-07-09T16:21:23;26.60;28.90
431;DHT22;202;48.764;9.172;2022-07-09T16:24:15;26.60;28.10
431;DHT22;202;48.764;9.172;2022-07-09T16:30:28;26.50;29.60
431;DHT22;202;48.764;9.172;2022-07-09T16:37:23;26.40;29.30
431;DHT22;202;48.764;9.172;2022-07-09T16:39:30;26.40;30.00
431;DHT22;202;48.764;9.172;2022-07-09T16:42:16;26.30;30.10
431;DHT22;202;48.764;9.172;2022-07-09T16:45:04;26.30;30.00
431;DHT22;202;48.764;9.172;2022-07-09T16:47:45;26.30;29.90
431;DHT22;202;48.764;9.172;2022-07-09T16:50:23;26.30;30.00
431;DHT22;202;48.764;9.172;2022-07-09T16:52:59;26.30;30.20
431;DHT22;202;48.764;9.172;2022-07-09T16:55:29;26.20;30.20
431;DHT22;202;48.764;9.172;2022-07-09T16:58:09;26.20;30.40
431;DHT22;202;48.764;9.172;2022-07-09T17:04:40;26.10;30.70
431;DHT22;202;48.764;9.172;2022-07-09T17:07:40;26.20;31.00
431;DHT22;202;48.764;9.172;2022-07-09T17:10:13;26.20;30.70
431;DHT22;202;48.764;9.172;2022-07-09T17:12:59;26.20;30.60
431;DHT22;202;48.764;9.172;2022-07-09T17:15:40;26.20;30.30
431;DHT22;202;48.764;9.172;2022-07-09T17:19:37;26.20;30.20
431;DHT22;202;48.764;9.172;2022-07-09T17:21:14;26.20;30.40
431;DHT22;202;48.764;9.172;2022-07-09T17:24:07;26.20;30.40
431;DHT22;202;48.764;9.172;2022-07-09T17:26:51;26.20;30.80
431;DHT22;202;48.764;9.172;2022-07-09T17:29:36;26.10;30.70
431;DHT22;202;48.764;9.172;2022-07-09T17:32:16;26.10;30.30
431;DHT22;202;48.764;9.172;2022-07-09T17:34:52;26.00;30.70
431;DHT22;202;48.764;9.172;2022-07-09T17:37:21;26.00;30.90
431;DHT22;202;48.764;9.172;2022-07-09T17:40:13;26.00;31.10
431;DHT22;202;48.764;9.172;2022-07-09T17:42:42;26.00;31.00
431;DHT22;202;48.764;9.172;2022-07-09T17:45:14;25.90;31.40
431;DHT22;202;48.764;9.172;2022-07-09T17:47:50;25.90;31.80
431;DHT22;202;48.764;9.172;2022-07-09T17:50:33;25.90;31.30
431;DHT22;202;48.764;9.172;2022-07-09T17:53:07;25.80;31.10
431;DHT22;202;48.764;9.172;2022-07-09T17:55:37;25.80;31.70
431;DHT22;202;48.764;9.172;2022-07-09T17:58:16;25.80;31.70
431;DHT22;202;48.764;9.172;2022-07-09T18:00:51;25.70;31.90
431;DHT22;202;48.764;9.172;2022-07-09T18:03:36;25.70;31.80
431;DHT22;202;48.764;9.172;2022-07-09T18:06:04;25.70;32.20
431;DHT22;202;48.764;9.172;2022-07-09T18:08:31;25.60;32.10
431;DHT22;202;48.764;9.172;2022-07-09T18:11:01;25.60;32.20
431;DHT22;202;48.764;9.172;2022-07-09T18:13:31;25.60;33.20
431;DHT22;202;48.764;9.172;2022-07-09T18:16:10;25.60;33.00
431;DHT22;202;48.764;9.172;2022-07-09T18:18:41;25.50;33.10
431;DHT22;202;48.764;9.172;2022-07-09T18:21:08;25.50;33.20
431;DHT22;202;48.764;9.172;2022-07-09T18:23:37;25.40;33.40
431;DHT22;202;48.764;9.172;2022-07-09T18:26:07;25.40;33.40
431;DHT22;202;48.764;9.172;2022-07-09T18:28:45;25.30;33.30
431;DHT22;202;48.764;9.172;2022-07-09T18:31:23;25.30;33.60
431;DHT22;202;48.764;9.172;2022-07-09T18:34:04;25.30;33.60
431;DHT22;202;48.764;9.172;2022-07-09T18:37:05;25.30;33.30
431;DHT22;202;48.764;9.172;2022-07-09T18:39:43;25.20;33.30
431;DHT22;202;48.764;9.172;2022-07-09T18:45:22;25.10;34.00
431;DHT22;202;48.764;9.172;2022-07-09T18:48:10;25.00;34.50
431;DHT22;202;48.764;9.172;2022-07-09T18:51:57;25.00;35.40
431;DHT22;202;48.764;9.172;2022-07-09T19:00:13;25.00;35.00
431;DHT22;202;48.764;9.172;2022-07-09T19:02:40;24.90;34.90
431;DHT22;202;48.764;9.172;2022-07-09T19:05:08;25.00;36.90
431;DHT22;202;48.764;9.172;2022-07-09T19:07:36;24.90;35.30
431;DHT22;202;48.764;9.172;2022-07-09T19:10:04;24.90;34.90
431;DHT22;202;48.764;9.172;2022-07-09T19:12:31;24.90;34.30
431;DHT22;202;48.764;9.172;2022-07-09T19:14:59;24.80;35.80
431;DHT22;202;48.764;9.172;2022-07-09T19:17:28;24.80;35.40
431;DHT22;202;48.764;9.172;2022-07-09T19:19:58;24.70;35.70
431;DHT22;202;48.764;9.172;2022-07-09T19:22:29;24.70;35.60
431;DHT22;202;48.764;9.172;2022-07-09T19:25:06;24.70;35.40
431;DHT22;202;48.764;9.172;2022-07-09T19:27:58;24.70;36.00
431;DHT22;202;48.764;9.172;2022-07-09T19:30:30;24.70;36.00
431;DHT22;202;48.764;9.172;2022-07-09T19:33:25;24.70;35.90
431;DHT22;202;48.764;9.172;2022-07-09T19:36:12;24.70;36.00
431;DHT22;202;48.764;9.172;2022-07-09T19:39:11;24.70;36.30
431;DHT22;202;48.764;9.172;2022-07-09T19:42:01;24.70;36.60
431;DHT22;202;48.764;9.172;2022-07-09T19:44:37;24.60;36.60
431;DHT22;202;48.764;9.172;2022-07-09T19:50:49;24.50;37.20